createdAt,value
2019-01-31T15:06:55.627Z,70.49
2019-01-31T15:09:24.090Z,70.98
2019-01-31T15:11:52.739Z,71.80
2019-01-31T15:14:31.266Z,72.76
2019-01-31T15:16:52.183Z,73.40
2019-01-31T15:19:20.715Z,73.89
2019-01-31T15:21:49.245Z,74.74
2019-01-31T15:24:17.701Z,75.88
2019-01-31T15:26:46.171Z,76.97
2019-01-31T15:29:14.682Z,77.72
2019-01-31T15:31:43.214Z,77.72
2019-01-31T15:34:11.743Z,77.64
2019-01-31T15:36:40.260Z,78.14
2019-01-31T15:39:08.809Z,78.39
2019-01-31T15:41:37.492Z,78.35
2019-01-31T15:44:06.301Z,78.55
2019-01-31T15:46:34.846Z,78.54
2019-01-31T15:49:03.376Z,79.10
2019-01-31T15:51:31.987Z,79.97
2019-01-31T15:54:00.509Z,80.52
2019-01-31T15:56:29.115Z,80.83
2019-01-31T15:58:57.769Z,80.59
2019-01-31T16:01:26.403Z,80.66
2019-01-31T16:03:55.227Z,80.86
2019-01-31T16:06:23.917Z,80.93
2019-01-31T16:08:52.418Z,81.50
2019-01-31T16:11:20.986Z,81.50
2019-01-31T16:13:49.468Z,81.96
2019-01-31T16:16:19.969Z,82.62
2019-01-31T16:18:48.491Z,82.65
2019-01-31T16:21:17.025Z,82.65
2019-01-31T16:23:45.486Z,82.75
2019-01-31T16:26:14.017Z,83.32
2019-01-31T16:28:42.620Z,83.32
2019-01-31T16:31:11.134Z,83.54
2019-01-31T16:33:39.606Z,83.94
2019-01-31T16:36:08.251Z,84.17
2019-01-31T16:38:36.847Z,84.17
2019-01-31T16:41:05.629Z,83.87
2019-01-31T16:43:34.263Z,83.90
2019-01-31T16:46:02.802Z,83.97
2019-01-31T16:48:31.428Z,84.11
2019-01-31T16:50:59.973Z,84.11
2019-01-31T16:53:28.508Z,84.04
2019-01-31T16:55:57.125Z,84.04
2019-01-31T16:58:25.839Z,84.54
2019-01-31T17:00:54.308Z,84.54
2019-01-31T17:03:22.890Z,84.96
2019-01-31T17:05:51.572Z,85.34
2019-01-31T17:08:20.264Z,85.57
2019-01-31T17:10:49.662Z,86.04
2019-01-31T17:13:18.240Z,86.03
2019-01-31T17:15:46.796Z,87.14
2019-01-31T17:18:15.261Z,88.34
2019-01-31T17:20:43.795Z,88.34
2019-01-31T17:23:12.391Z,89.46
2019-01-31T17:25:41.162Z,90.10
2019-01-31T17:28:10.120Z,90.68
2019-01-31T17:30:38.660Z,91.68
2019-01-31T17:33:07.476Z,92.62
2019-01-31T17:35:36.077Z,92.88
2019-01-31T17:38:04.878Z,93.01
2019-01-31T17:40:37.966Z,92.86
2019-01-31T17:43:07.936Z,93.06
2019-01-31T17:45:36.590Z,93.51
2019-01-31T17:48:05.746Z,94.04
2019-01-31T17:50:34.251Z,94.69
2019-01-31T17:53:02.731Z,95.39
2019-01-31T17:55:31.234Z,96.15
2019-01-31T17:57:59.738Z,96.42
2019-01-31T18:00:38.919Z,96.90
2019-01-31T18:03:08.001Z,96.58
2019-01-31T18:05:36.707Z,96.48
2019-01-31T18:08:09.218Z,96.87
2019-01-31T18:10:36.410Z,96.94
2019-01-31T18:13:07.007Z,96.93
2019-01-31T18:15:42.047Z,97.42
2019-01-31T18:18:06.179Z,97.91
2019-01-31T18:20:34.907Z,98.04
2019-01-31T18:23:03.553Z,97.86
2019-01-31T18:25:32.015Z,97.89
2019-01-31T18:28:00.547Z,98.14
2019-01-31T18:30:34.410Z,98.44
2019-01-31T18:33:02.946Z,98.89
2019-01-31T18:35:31.598Z,99.41
2019-01-31T18:38:00.175Z,99.51
2019-01-31T18:40:33.578Z,99.63
2019-01-31T18:43:02.126Z,99.71
2019-01-31T18:45:32.606Z,99.46
2019-01-31T18:48:01.405Z,99.21
2019-01-31T18:50:32.597Z,98.91
2019-01-31T18:53:01.337Z,98.72
2019-01-31T18:55:31.308Z,98.44
2019-01-31T18:57:59.957Z,98.40
2019-01-31T19:00:34.039Z,98.20
2019-01-31T19:03:02.694Z,98.14
2019-01-31T19:05:31.735Z,98.51
2019-01-31T19:08:00.395Z,98.82
2019-01-31T19:10:29.002Z,99.11
2019-01-31T19:12:57.614Z,99.44
2019-01-31T19:15:27.664Z,99.69
2019-01-31T19:18:05.415Z,100.00
2019-01-31T19:20:31.014Z,100.00
2019-01-31T19:23:01.476Z,100.00
2019-01-31T19:25:32.281Z,100.00
2019-01-31T19:28:00.925Z,100.00
2019-01-31T19:30:31.940Z,100.00
2019-01-31T19:33:00.777Z,100.00
2019-01-31T19:35:29.510Z,100.00
2019-01-31T19:38:02.137Z,100.00
2019-01-31T19:40:30.949Z,100.00
2019-01-31T19:42:59.569Z,100.00
2019-01-31T19:45:33.975Z,100.00
2019-01-31T19:48:05.292Z,100.00
2019-01-31T19:50:33.103Z,100.00
2019-01-31T19:53:04.601Z,100.00
2019-01-31T19:55:33.264Z,100.00
2019-01-31T19:58:01.743Z,100.00
2019-01-31T20:00:30.339Z,100.00
2019-01-31T20:02:59.019Z,100.00
2019-01-31T20:05:27.833Z,100.00
2019-01-31T20:07:56.757Z,100.00
2019-01-31T20:10:30.900Z,100.00
2019-01-31T20:12:59.701Z,100.00
2019-01-31T20:15:29.227Z,100.00
2019-01-31T20:17:58.372Z,100.00
2019-01-31T20:20:28.769Z,100.00
2019-01-31T20:22:58.187Z,100.00
2019-01-31T20:25:27.177Z,100.00
2019-01-31T20:27:55.816Z,100.00
2019-01-31T20:30:27.339Z,100.00
2019-01-31T20:32:56.224Z,100.00
2019-01-31T20:35:25.315Z,100.00
2019-01-31T20:37:54.034Z,100.00
2019-01-31T20:40:31.656Z,100.00
2019-01-31T20:43:00.464Z,100.00
2019-01-31T20:45:29.170Z,100.00
2019-01-31T20:47:57.978Z,100.00
2019-01-31T20:50:29.044Z,100.00
2019-01-31T20:52:58.044Z,100.00
2019-01-31T20:55:26.756Z,100.00
2019-01-31T20:57:55.428Z,100.00
2019-01-31T21:00:33.894Z,100.00
2019-01-31T21:03:03.002Z,100.00
2019-01-31T21:05:31.601Z,100.00
2019-01-31T21:08:00.210Z,100.00
2019-01-31T21:10:29.083Z,100.00
2019-01-31T21:12:57.740Z,100.00
2019-01-31T21:15:26.548Z,100.00
2019-01-31T21:17:55.442Z,100.00
2019-01-31T21:20:26.805Z,100.00
2019-01-31T21:22:55.766Z,100.00
2019-01-31T21:25:24.544Z,100.00
2019-01-31T21:27:54.075Z,100.00
2019-01-31T21:30:28.594Z,100.00
2019-01-31T21:32:57.352Z,100.00
2019-01-31T21:35:26.708Z,100.00
2019-01-31T21:37:55.289Z,100.00
2019-01-31T21:40:27.111Z,100.00
2019-01-31T21:42:55.696Z,100.00
2019-01-31T21:45:25.333Z,100.00
2019-01-31T21:47:53.944Z,100.00
2019-01-31T21:50:28.088Z,100.00
2019-01-31T21:52:56.731Z,100.00
2019-01-31T21:55:25.517Z,100.00
2019-01-31T21:57:54.120Z,100.00
2019-01-31T22:00:31.378Z,100.00
2019-01-31T22:03:00.196Z,100.00
2019-01-31T22:05:28.930Z,100.00
2019-01-31T22:07:57.595Z,100.00
2019-01-31T22:10:26.368Z,100.00
2019-01-31T22:12:55.034Z,100.00
2019-01-31T22:15:26.308Z,100.00
2019-01-31T22:17:57.329Z,100.00
2019-01-31T22:20:25.473Z,100.00
2019-01-31T22:22:54.694Z,100.00
2019-01-31T22:25:24.017Z,100.00
2019-01-31T22:27:52.941Z,100.00
2019-01-31T22:30:32.405Z,100.00
2019-01-31T22:33:00.869Z,100.00
2019-01-31T22:35:29.615Z,100.00
2019-01-31T22:37:58.142Z,100.00
2019-01-31T22:40:26.757Z,100.00
2019-01-31T22:42:55.221Z,100.00
2019-01-31T22:45:24.578Z,100.00
2019-01-31T22:47:53.183Z,100.00
2019-01-31T22:50:25.080Z,100.00
2019-01-31T22:52:53.744Z,100.00
2019-01-31T22:55:24.716Z,100.00
2019-01-31T22:57:53.528Z,100.00
2019-01-31T23:00:50.764Z,100.00
2019-01-31T23:03:19.367Z,100.00
2019-01-31T23:05:47.837Z,100.00
2019-01-31T23:08:16.377Z,100.00
2019-01-31T23:10:44.902Z,100.00
2019-01-31T23:13:13.389Z,100.00
2019-01-31T23:15:41.987Z,100.00
2019-01-31T23:18:10.598Z,100.00
2019-01-31T23:20:39.136Z,100.00
2019-01-31T23:23:07.663Z,100.00
2019-01-31T23:25:40.202Z,100.00
2019-01-31T23:28:06.808Z,100.00
2019-01-31T23:30:35.504Z,100.00
2019-01-31T23:33:04.842Z,100.00
2019-01-31T23:35:33.390Z,100.00
2019-01-31T23:38:01.938Z,100.00
2019-01-31T23:40:30.690Z,100.00
2019-01-31T23:42:59.122Z,100.00
2019-01-31T23:45:27.747Z,100.00
2019-01-31T23:47:56.370Z,100.00
2019-01-31T23:50:25.021Z,100.00
2019-01-31T23:52:53.613Z,100.00
2019-01-31T23:55:22.123Z,100.00
2019-01-31T23:57:50.616Z,100.00
